createdAt,value
2018-11-28T00:00:25.592Z,29.5
2018-11-28T00:01:26.303Z,39.7
2018-11-28T00:02:27.013Z,30.3
2018-11-28T00:03:27.719Z,29.9
2018-11-28T00:04:28.420Z,28.5
2018-11-28T00:05:29.126Z,30.0
2018-11-28T00:06:29.976Z,29.9
2018-11-28T00:07:31.057Z,31.2
2018-11-28T00:08:31.786Z,30.1
2018-11-28T00:09:32.762Z,28.9
2018-11-28T00:10:33.823Z,30.4
2018-11-28T00:11:35.351Z,31.0
2018-11-28T00:12:36.440Z,28.7
2018-11-28T00:13:37.592Z,29.0
2018-11-28T00:14:38.340Z,28.7
2018-11-28T00:15:39.617Z,29.0
2018-11-28T00:16:40.419Z,28.9
2018-11-28T00:17:41.258Z,29.8
2018-11-28T00:18:41.984Z,29.8
2018-11-28T00:19:43.519Z,31.4
2018-11-28T00:20:44.509Z,31.2
2018-11-28T00:21:45.218Z,29.8
2018-11-28T00:22:45.981Z,27.9
2018-11-28T00:23:46.730Z,28.6
2018-11-28T00:24:47.462Z,29.2
2018-11-28T00:25:48.177Z,28.0
2018-11-28T00:26:48.915Z,28.6
2018-11-28T00:27:49.907Z,27.8
2018-11-28T00:28:50.736Z,28.4
2018-11-28T00:29:51.664Z,28.1
2018-11-28T00:30:52.628Z,27.4
2018-11-28T00:31:53.349Z,29.0
2018-11-28T00:32:54.058Z,27.0
2018-11-28T00:33:54.929Z,31.1
2018-11-28T00:34:55.633Z,29.9
2018-11-28T00:35:56.347Z,27.2
2018-11-28T00:36:57.058Z,26.8
2018-11-28T00:37:57.769Z,27.0
2018-11-28T00:38:58.484Z,26.6
2018-11-28T00:39:59.463Z,27.7
2018-11-28T00:41:00.168Z,28.5
2018-11-28T00:42:01.140Z,27.6
2018-11-28T00:43:01.841Z,25.5
2018-11-28T00:44:02.559Z,27.9
2018-11-28T00:45:03.255Z,26.3
2018-11-28T00:46:03.985Z,27.0
2018-11-28T00:47:04.719Z,26.6
2018-11-28T00:48:05.419Z,27.1
2018-11-28T00:49:06.132Z,27.9
2018-11-28T00:50:06.843Z,27.1
2018-11-28T00:51:07.563Z,26.6
2018-11-28T00:52:08.274Z,26.9
2018-11-28T00:53:09.036Z,26.8
2018-11-28T00:54:09.734Z,26.9
2018-11-28T00:55:10.451Z,26.0
2018-11-28T00:56:11.162Z,27.3
2018-11-28T00:57:11.874Z,26.8
2018-11-28T00:58:12.844Z,25.9
2018-11-28T00:59:13.551Z,26.1
2018-11-28T01:00:14.268Z,27.5
2018-11-28T01:01:14.969Z,27.4
2018-11-28T01:02:15.936Z,25.6
2018-11-28T01:03:16.645Z,27.0
2018-11-28T01:04:17.355Z,27.3
2018-11-28T01:05:18.081Z,27.2
2018-11-28T01:06:18.938Z,26.7
2018-11-28T01:07:19.657Z,27.7
2018-11-28T01:08:20.374Z,28.5
2018-11-28T01:09:21.350Z,25.9
2018-11-28T01:10:22.228Z,26.8
2018-11-28T01:11:22.972Z,26.6
2018-11-28T01:12:23.681Z,25.9
2018-11-28T01:13:24.401Z,25.4
2018-11-28T01:14:25.106Z,26.9
2018-11-28T01:15:25.814Z,27.1
2018-11-28T01:16:26.519Z,25.6
2018-11-28T01:17:27.228Z,26.9
2018-11-28T01:18:27.954Z,27.0
2018-11-28T01:19:28.673Z,27.2
2018-11-28T01:20:29.370Z,25.8
2018-11-28T01:21:30.081Z,26.8
2018-11-28T01:22:30.779Z,25.0
2018-11-28T01:23:31.489Z,26.6
2018-11-28T01:24:32.198Z,26.0
2018-11-28T01:25:33.153Z,25.3
2018-11-28T01:26:33.869Z,25.2
2018-11-28T01:27:34.677Z,26.5
2018-11-28T01:28:35.388Z,25.9
2018-11-28T01:29:36.091Z,26.4
2018-11-28T01:30:36.795Z,27.4
2018-11-28T01:31:37.552Z,27.2
2018-11-28T01:32:38.507Z,25.6
2018-11-28T01:33:39.223Z,24.5
2018-11-28T01:34:39.921Z,25.9
2018-11-28T01:35:40.625Z,25.7
2018-11-28T01:36:41.325Z,26.3
2018-11-28T01:37:42.304Z,24.9
2018-11-28T01:38:43.014Z,25.8
2018-11-28T01:39:43.728Z,27.2
2018-11-28T01:40:44.436Z,24.7
2018-11-28T01:41:45.147Z,27.3
2018-11-28T01:42:45.864Z,24.6
2018-11-28T01:43:46.574Z,27.6
2018-11-28T01:44:47.576Z,26.8
2018-11-28T01:45:48.288Z,27.2
2018-11-28T01:46:48.985Z,26.2
2018-11-28T01:47:49.706Z,28.7
2018-11-28T01:48:50.409Z,27.3
2018-11-28T01:49:51.130Z,25.6
2018-11-28T01:50:51.839Z,27.7
2018-11-28T01:51:52.548Z,26.1
2018-11-28T01:52:53.247Z,26.7
2018-11-28T01:53:53.954Z,26.0
2018-11-28T01:54:54.667Z,27.9
2018-11-28T01:55:55.382Z,26.6
2018-11-28T01:56:56.104Z,25.6
2018-11-28T01:57:56.819Z,26.4
2018-11-28T01:58:57.539Z,27.0
2018-11-28T01:59:58.244Z,28.4
2018-11-28T02:00:59.109Z,26.6
2018-11-28T02:01:59.823Z,26.8
2018-11-28T02:03:00.533Z,27.4
2018-11-28T02:04:01.236Z,26.5
2018-11-28T02:05:01.978Z,26.1
2018-11-28T02:06:02.682Z,26.9
2018-11-28T02:07:03.380Z,26.0
2018-11-28T02:08:04.091Z,27.7
2018-11-28T02:09:04.794Z,28.1
2018-11-28T02:10:05.513Z,27.5
2018-11-28T02:11:06.233Z,25.7
2018-11-28T02:12:06.953Z,27.3
2018-11-28T02:13:07.666Z,26.3
2018-11-28T02:14:08.369Z,25.6
2018-11-28T02:15:09.083Z,25.9
2018-11-28T02:16:09.834Z,28.1
2018-11-28T02:17:10.543Z,27.5
2018-11-28T02:18:11.255Z,26.4
2018-11-28T02:19:11.972Z,28.5
2018-11-28T02:20:12.695Z,27.5
2018-11-28T02:21:13.399Z,29.1
2018-11-28T02:22:14.120Z,28.1
2018-11-28T02:23:14.833Z,26.9
2018-11-28T02:24:15.555Z,26.2
2018-11-28T02:25:16.250Z,27.7
2018-11-28T02:26:16.969Z,27.4
2018-11-28T02:27:17.677Z,28.7
2018-11-28T02:28:18.374Z,27.5
2018-11-28T02:29:19.086Z,29.5
2018-11-28T02:30:19.802Z,29.1
2018-11-28T02:31:20.504Z,28.6
2018-11-28T02:32:21.207Z,27.9
2018-11-28T02:33:22.161Z,27.6
2018-11-28T02:34:22.927Z,28.9
2018-11-28T02:35:23.630Z,29.5
2018-11-28T02:36:24.338Z,30.2
2018-11-28T02:37:25.061Z,28.8
2018-11-28T02:38:25.765Z,28.4
2018-11-28T02:39:26.479Z,28.4
2018-11-28T02:40:27.177Z,28.7
2018-11-28T02:41:27.890Z,27.7
2018-11-28T02:42:28.600Z,28.3
2018-11-28T02:43:29.318Z,28.1
2018-11-28T02:44:30.018Z,27.8
2018-11-28T02:45:30.826Z,26.9
2018-11-28T02:46:31.452Z,27.7
2018-11-28T02:47:32.167Z,26.7
2018-11-28T02:48:32.864Z,27.5
2018-11-28T02:49:33.590Z,28.2
2018-11-28T02:50:34.284Z,27.3
2018-11-28T02:51:34.993Z,26.9
2018-11-28T02:52:35.702Z,28.5
2018-11-28T02:53:36.410Z,27.1
2018-11-28T02:54:37.120Z,28.7
2018-11-28T02:55:37.827Z,27.0
2018-11-28T02:56:38.587Z,27.8
2018-11-28T02:57:39.297Z,27.4
2018-11-28T02:58:40.007Z,29.1
2018-11-28T02:59:40.708Z,29.3
2018-11-28T03:00:41.414Z,28.4
2018-11-28T03:01:42.123Z,29.2
2018-11-28T03:02:42.935Z,29.2
2018-11-28T03:03:43.646Z,27.8
2018-11-28T03:04:44.351Z,28.8
2018-11-28T03:05:45.062Z,30.3
2018-11-28T03:06:46.023Z,28.0
2018-11-28T03:07:46.774Z,28.5
2018-11-28T03:08:47.486Z,28.8
2018-11-28T03:09:48.184Z,30.0
2018-11-28T03:10:48.892Z,28.7
2018-11-28T03:11:49.597Z,27.7
2018-11-28T03:12:50.305Z,27.1
2018-11-28T03:13:51.024Z,28.3
2018-11-28T03:14:51.733Z,28.4
2018-11-28T03:15:52.452Z,28.2
2018-11-28T03:16:53.154Z,29.5
2018-11-28T03:17:54.116Z,27.9
2018-11-28T03:18:54.826Z,29.8
2018-11-28T03:19:55.789Z,29.8
2018-11-28T03:20:56.556Z,30.4
2018-11-28T03:21:57.277Z,29.4
2018-11-28T03:22:57.987Z,28.2
2018-11-28T03:23:58.692Z,29.2
2018-11-28T03:24:59.400Z,28.7
2018-11-28T03:26:00.126Z,29.0
2018-11-28T03:27:00.823Z,29.0
2018-11-28T03:28:01.529Z,28.1
2018-11-28T03:29:02.242Z,29.7
2018-11-28T03:30:02.954Z,28.7
2018-11-28T03:31:03.818Z,28.2
2018-11-28T03:32:04.531Z,27.7
2018-11-28T03:33:05.247Z,29.0
2018-11-28T03:34:06.224Z,28.5
2018-11-28T03:35:06.909Z,28.9
2018-11-28T03:36:07.702Z,29.3
2018-11-28T03:37:08.366Z,29.7
2018-11-28T03:38:09.330Z,31.5
2018-11-28T03:39:10.045Z,30.5
2018-11-28T03:40:10.749Z,29.3
2018-11-28T03:41:11.458Z,30.2
2018-11-28T03:42:12.184Z,31.5
2018-11-28T03:43:12.879Z,30.3
2018-11-28T03:44:13.583Z,31.2
2018-11-28T03:45:14.290Z,30.0
2018-11-28T03:46:15.058Z,29.6
2018-11-28T03:47:15.758Z,28.7
2018-11-28T03:48:16.466Z,29.3
2018-11-28T03:49:17.167Z,29.0
2018-11-28T03:50:17.867Z,29.8
2018-11-28T03:51:18.582Z,28.0
2018-11-28T03:52:19.294Z,28.2
2018-11-28T03:53:20.105Z,28.6
2018-11-28T03:54:20.852Z,29.6
2018-11-28T03:55:21.554Z,29.8
2018-11-28T03:56:22.262Z,29.0
2018-11-28T03:57:22.975Z,29.9
2018-11-28T03:58:23.683Z,30.2
2018-11-28T03:59:24.389Z,27.8
2018-11-28T04:00:25.101Z,30.4
2018-11-28T04:01:25.808Z,31.2
2018-11-28T04:02:26.539Z,31.2
2018-11-28T04:03:27.237Z,30.2
2018-11-28T04:04:29.076Z,31.4
2018-11-28T04:05:29.784Z,30.4
2018-11-28T04:06:30.495Z,28.7
2018-11-28T04:07:31.214Z,29.9
2018-11-28T04:08:31.919Z,29.5
2018-11-28T04:09:32.621Z,30.4
2018-11-28T04:10:33.429Z,29.6
2018-11-28T04:11:34.130Z,30.3
2018-11-28T04:12:35.085Z,31.5
2018-11-28T04:13:35.804Z,28.4
2018-11-28T04:14:36.524Z,30.4
2018-11-28T04:15:37.273Z,31.9
2018-11-28T04:16:37.985Z,29.6
2018-11-28T04:17:38.708Z,29.7
2018-11-28T04:18:39.404Z,30.4
2018-11-28T04:19:40.106Z,31.1
2018-11-28T04:20:40.870Z,30.6
2018-11-28T04:21:41.579Z,31.6
2018-11-28T04:22:42.529Z,30.8
2018-11-28T04:23:43.246Z,29.5
2018-11-28T04:24:43.961Z,30.9
2018-11-28T04:25:44.677Z,29.3
2018-11-28T04:26:45.379Z,30.3
2018-11-28T04:27:46.135Z,29.1
2018-11-28T04:28:47.106Z,30.8
2018-11-28T04:29:47.800Z,28.9
2018-11-28T04:30:48.508Z,31.6
2018-11-28T04:31:49.210Z,29.6
2018-11-28T04:32:50.009Z,30.3
2018-11-28T04:33:50.781Z,29.8
2018-11-28T04:34:51.434Z,31.1
2018-11-28T04:35:52.126Z,30.9
2018-11-28T04:36:52.829Z,30.4
2018-11-28T04:37:53.540Z,30.4
2018-11-28T04:38:54.238Z,30.0
2018-11-28T04:39:54.961Z,31.8
2018-11-28T04:40:55.661Z,31.8
2018-11-28T04:41:56.372Z,33.8
2018-11-28T04:42:57.086Z,34.5
2018-11-28T04:43:57.792Z,33.0
2018-11-28T04:44:58.516Z,31.8
2018-11-28T04:45:59.232Z,31.8
2018-11-28T04:46:59.929Z,31.0
2018-11-28T04:48:00.627Z,32.8
2018-11-28T04:49:01.346Z,34.6
2018-11-28T04:50:02.057Z,30.9
2018-11-28T04:51:02.765Z,33.1
2018-11-28T04:52:03.717Z,30.8
2018-11-28T04:53:04.500Z,32.2
2018-11-28T04:54:05.193Z,32.6
2018-11-28T04:55:05.892Z,32.1
2018-11-28T04:56:06.842Z,32.0
2018-11-28T04:57:07.550Z,34.0
2018-11-28T04:58:08.258Z,33.2
2018-11-28T04:59:08.968Z,32.3
2018-11-28T05:00:09.685Z,32.7
2018-11-28T05:01:10.381Z,33.1
2018-11-28T05:02:11.095Z,31.9
2018-11-28T05:03:11.801Z,32.2
2018-11-28T05:04:12.750Z,32.8
2018-11-28T05:05:13.700Z,34.0
2018-11-28T05:06:14.398Z,36.3
2018-11-28T05:07:15.158Z,34.8
2018-11-28T05:08:15.871Z,35.0
2018-11-28T05:09:16.573Z,31.9
2018-11-28T05:10:17.288Z,33.3
2018-11-28T05:11:18.009Z,34.1
2018-11-28T05:12:18.704Z,33.1
2018-11-28T05:13:19.415Z,35.2
2018-11-28T05:14:20.112Z,32.1
2018-11-28T05:15:20.811Z,35.1
2018-11-28T05:16:21.529Z,32.4
2018-11-28T05:17:22.232Z,33.1
2018-11-28T05:18:22.955Z,34.3
2018-11-28T05:19:23.658Z,33.0
2018-11-28T05:20:24.362Z,33.5
2018-11-28T05:21:25.073Z,33.6
2018-11-28T05:22:25.774Z,33.7
2018-11-28T05:23:26.494Z,34.7
2018-11-28T05:24:27.187Z,34.2
2018-11-28T05:25:28.191Z,34.3
2018-11-28T05:26:28.610Z,34.7
2018-11-28T05:27:29.375Z,33.1
2018-11-28T05:28:30.090Z,33.6
2018-11-28T05:29:30.788Z,33.6
2018-11-28T05:30:31.740Z,34.8
2018-11-28T05:31:32.447Z,34.0
2018-11-28T05:32:33.157Z,32.6
2018-11-28T05:33:33.865Z,34.4
2018-11-28T05:34:34.577Z,35.4
2018-11-28T05:35:35.340Z,34.2
2018-11-28T05:36:36.059Z,33.6
2018-11-28T05:37:36.764Z,34.1
2018-11-28T05:38:37.496Z,36.2
2018-11-28T05:39:38.175Z,33.8
2018-11-28T05:40:38.881Z,33.2
2018-11-28T05:41:40.835Z,34.2
2018-11-28T05:42:40.313Z,34.4
2018-11-28T05:43:41.024Z,34.0
2018-11-28T05:44:41.782Z,33.8
2018-11-28T05:45:42.502Z,34.2
2018-11-28T05:46:43.210Z,33.4
2018-11-28T05:47:44.173Z,34.7
2018-11-28T05:48:44.868Z,33.7
2018-11-28T05:49:45.575Z,33.6
2018-11-28T05:50:46.292Z,34.8
2018-11-28T05:51:47.253Z,34.0
2018-11-28T05:52:47.954Z,34.2
2018-11-28T05:53:48.666Z,32.1
2018-11-28T05:54:49.370Z,34.6
2018-11-28T05:55:50.085Z,34.9
2018-11-28T05:56:50.789Z,34.0
2018-11-28T05:57:51.507Z,34.0
2018-11-28T05:58:52.224Z,33.8
2018-11-28T05:59:52.936Z,33.2
2018-11-28T06:00:53.659Z,34.1
2018-11-28T06:01:54.366Z,34.7
2018-11-28T06:02:55.070Z,33.8
2018-11-28T06:03:55.781Z,34.8
2018-11-28T06:04:56.795Z,33.2
2018-11-28T06:05:57.492Z,33.4
2018-11-28T06:06:58.198Z,32.9
2018-11-28T06:07:58.909Z,32.7
2018-11-28T06:08:59.617Z,34.3
2018-11-28T06:10:00.474Z,33.0
2018-11-28T06:11:01.186Z,32.5
2018-11-28T06:12:01.910Z,35.9
2018-11-28T06:13:02.597Z,34.4
2018-11-28T06:14:03.309Z,32.7
2018-11-28T06:15:04.117Z,32.8
2018-11-28T06:16:04.838Z,31.4
2018-11-28T06:17:05.545Z,31.3
2018-11-28T06:18:06.264Z,31.0
2018-11-28T06:19:06.981Z,33.0
2018-11-28T06:20:07.689Z,33.8
2018-11-28T06:21:08.389Z,31.8
2018-11-28T06:22:09.101Z,30.2
2018-11-28T06:23:10.054Z,31.6
2018-11-28T06:24:10.757Z,32.2
2018-11-28T06:25:15.974Z,33.0
2018-11-28T06:26:12.257Z,31.0
2018-11-28T06:27:12.977Z,31.4
2018-11-28T06:28:13.686Z,31.0
2018-11-28T06:29:14.398Z,29.3
2018-11-28T06:30:15.108Z,30.4
2018-11-28T06:31:15.911Z,29.2
2018-11-28T06:32:16.618Z,29.2
2018-11-28T06:33:17.328Z,29.5
2018-11-28T06:34:18.052Z,30.9
2018-11-28T06:35:18.761Z,29.3
2018-11-28T06:36:19.728Z,30.4
2018-11-28T06:37:20.452Z,30.7
2018-11-28T06:38:21.148Z,28.9
2018-11-28T06:39:21.937Z,29.9
2018-11-28T06:40:24.262Z,29.4
2018-11-28T06:41:23.353Z,29.2
2018-11-28T06:42:24.062Z,29.0
2018-11-28T06:43:24.864Z,30.8
2018-11-28T06:44:25.606Z,28.9
2018-11-28T06:45:26.322Z,29.3
2018-11-28T06:46:27.473Z,30.1
2018-11-28T06:47:29.048Z,29.4
2018-11-28T06:48:28.893Z,27.4
2018-11-28T06:49:29.636Z,28.8
2018-11-28T06:50:30.359Z,28.2
2018-11-28T06:51:31.060Z,29.6
2018-11-28T06:52:31.776Z,28.6
2018-11-28T06:53:32.497Z,28.4
2018-11-28T06:54:33.205Z,29.2
2018-11-28T06:55:33.928Z,28.3
2018-11-28T06:56:34.953Z,28.9
2018-11-28T06:57:35.668Z,29.1
2018-11-28T06:58:36.372Z,30.1
2018-11-28T06:59:38.379Z,29.6
2018-11-28T07:00:37.893Z,29.1
2018-11-28T07:01:38.616Z,30.4
2018-11-28T07:02:39.313Z,29.4
2018-11-28T07:03:40.027Z,27.6
2018-11-28T07:04:40.739Z,28.4
2018-11-28T07:05:41.556Z,28.3
2018-11-28T07:06:42.272Z,30.2
2018-11-28T07:07:43.839Z,29.1
2018-11-28T07:08:45.140Z,28.6
2018-11-28T07:09:45.853Z,31.2
2018-11-28T07:10:46.559Z,30.4
2018-11-28T07:11:47.282Z,29.8
2018-11-28T07:12:47.983Z,29.6
2018-11-28T07:13:48.690Z,29.6
2018-11-28T07:14:49.392Z,28.9
2018-11-28T07:15:50.110Z,28.8
2018-11-28T07:16:50.817Z,28.2
2018-11-28T07:17:51.532Z,30.1
2018-11-28T07:18:52.251Z,29.9
2018-11-28T07:19:52.957Z,29.6
2018-11-28T07:20:53.678Z,29.0
2018-11-28T07:21:54.370Z,30.3
2018-11-28T07:22:55.078Z,31.4
2018-11-28T07:23:55.783Z,29.5
2018-11-28T07:24:56.507Z,30.6
2018-11-28T07:25:57.217Z,30.9
2018-11-28T07:26:57.926Z,29.3
2018-11-28T07:27:58.629Z,29.6
2018-11-28T07:28:59.340Z,28.8
2018-11-28T07:30:00.056Z,28.8
2018-11-28T07:31:00.776Z,27.7
2018-11-28T07:32:01.494Z,29.4
2018-11-28T07:33:02.216Z,28.0
2018-11-28T07:34:02.934Z,28.5
2018-11-28T07:35:03.664Z,28.8
2018-11-28T07:36:04.432Z,29.1
2018-11-28T07:37:05.152Z,29.5
2018-11-28T07:38:05.864Z,28.7
2018-11-28T07:39:06.833Z,28.4
2018-11-28T07:40:07.555Z,28.6
2018-11-28T07:41:08.318Z,28.5
2018-11-28T07:42:09.044Z,28.9
2018-11-28T07:43:09.752Z,27.3
2018-11-28T07:44:10.462Z,27.0
2018-11-28T07:45:11.174Z,26.8
2018-11-28T07:46:11.886Z,25.6
2018-11-28T07:47:12.845Z,27.6
2018-11-28T07:48:13.553Z,24.7
2018-11-28T07:49:14.255Z,25.5
2018-11-28T07:50:14.979Z,26.3
2018-11-28T07:51:15.701Z,23.9
2018-11-28T07:52:16.408Z,23.7
2018-11-28T07:53:17.222Z,23.9
2018-11-28T07:54:17.945Z,23.8
2018-11-28T07:55:18.644Z,22.8
2018-11-28T07:56:19.369Z,25.3
2018-11-28T07:57:20.092Z,23.9
2018-11-28T07:58:20.798Z,22.5
2018-11-28T07:59:21.522Z,23.6
2018-11-28T08:00:22.328Z,23.9
2018-11-28T08:01:23.013Z,23.3
2018-11-28T08:02:23.718Z,21.8
2018-11-28T08:03:24.434Z,23.5
2018-11-28T08:04:25.286Z,23.3
2018-11-28T08:05:25.861Z,23.8
2018-11-28T08:06:26.586Z,22.4
2018-11-28T08:07:27.285Z,21.5
2018-11-28T08:08:28.015Z,21.8
2018-11-28T08:09:28.718Z,22.4
2018-11-28T08:10:29.434Z,21.6
2018-11-28T08:11:30.146Z,21.5
2018-11-28T08:12:30.852Z,21.7
2018-11-28T08:13:31.576Z,22.0
2018-11-28T08:14:32.288Z,22.3
2018-11-28T08:15:33.018Z,21.8
2018-11-28T08:16:33.731Z,21.5
2018-11-28T08:17:34.454Z,20.7
2018-11-28T08:18:35.162Z,21.1
2018-11-28T08:19:35.871Z,20.4
2018-11-28T08:20:36.590Z,21.2
2018-11-28T08:21:37.311Z,21.9
2018-11-28T08:22:38.049Z,21.2
2018-11-28T08:23:38.756Z,20.8
2018-11-28T08:24:39.630Z,20.6
2018-11-28T08:25:40.182Z,20.9
2018-11-28T08:26:40.898Z,20.7
2018-11-28T08:27:41.966Z,20.2
2018-11-28T08:28:42.585Z,20.1
2018-11-28T08:29:43.297Z,19.9
2018-11-28T08:30:44.013Z,19.7
2018-11-28T08:31:44.726Z,20.0
2018-11-28T08:32:45.495Z,20.2
2018-11-28T08:33:46.209Z,19.9
2018-11-28T08:34:46.930Z,20.7
2018-11-28T08:35:47.812Z,20.6
2018-11-28T08:36:48.363Z,20.1
2018-11-28T08:37:49.081Z,20.1
2018-11-28T08:38:49.786Z,18.4
2018-11-28T08:39:50.511Z,19.0
2018-11-28T08:40:51.226Z,19.8
2018-11-28T08:41:51.950Z,18.7
2018-11-28T08:42:52.655Z,18.7
2018-11-28T08:43:53.366Z,19.0
2018-11-28T08:44:54.180Z,20.4
2018-11-28T08:45:54.813Z,19.7
2018-11-28T08:46:55.782Z,19.6
2018-11-28T08:47:56.499Z,19.3
2018-11-28T08:48:57.202Z,19.8
2018-11-28T08:49:57.920Z,18.9
2018-11-28T08:50:58.630Z,19.1
2018-11-28T08:51:59.344Z,18.8
2018-11-28T08:53:00.062Z,19.1
2018-11-28T08:54:00.778Z,19.8
2018-11-28T08:55:01.494Z,18.7
2018-11-28T08:56:02.463Z,18.9
2018-11-28T08:57:03.171Z,18.7
2018-11-28T08:58:03.996Z,18.4
2018-11-28T08:59:04.730Z,18.4
2018-11-28T09:00:05.413Z,18.7
2018-11-28T09:01:06.126Z,18.7
2018-11-28T09:02:06.846Z,19.1
2018-11-28T09:03:07.562Z,18.2
2018-11-28T09:04:08.329Z,19.2
2018-11-28T09:05:08.988Z,17.6
2018-11-28T09:06:09.696Z,19.0
2018-11-28T09:07:10.660Z,20.0
2018-11-28T09:08:11.367Z,18.3
2018-11-28T09:09:12.185Z,19.8
2018-11-28T09:10:13.145Z,19.7
2018-11-28T09:11:13.882Z,19.7
2018-11-28T09:12:14.611Z,18.4
2018-11-28T09:13:15.317Z,18.2
2018-11-28T09:14:16.273Z,18.9
2018-11-28T09:15:17.087Z,19.2
2018-11-28T09:16:17.811Z,19.7
2018-11-28T09:17:18.513Z,19.0
2018-11-28T09:18:19.227Z,18.7
2018-11-28T09:19:19.943Z,18.3
2018-11-28T09:20:20.660Z,18.5
2018-11-28T09:21:21.367Z,19.4
2018-11-28T09:22:22.091Z,17.6
2018-11-28T09:23:22.812Z,18.1
2018-11-28T09:24:23.531Z,17.8
2018-11-28T09:25:24.241Z,18.0
2018-11-28T09:26:24.967Z,16.8
2018-11-28T09:27:25.679Z,18.0
2018-11-28T09:28:26.394Z,17.4
2018-11-28T09:29:27.111Z,18.1
2018-11-28T09:30:27.831Z,17.0
2018-11-28T09:31:28.553Z,16.6
2018-11-28T09:32:29.271Z,17.7
2018-11-28T09:33:29.992Z,17.0
2018-11-28T09:34:30.695Z,17.4
2018-11-28T09:35:31.419Z,16.6
2018-11-28T09:36:32.140Z,16.0
2018-11-28T09:37:32.858Z,17.6
2018-11-28T09:38:33.579Z,18.2
2018-11-28T09:39:34.295Z,16.9
2018-11-28T09:40:35.007Z,17.7
2018-11-28T09:41:35.728Z,17.8
2018-11-28T09:42:36.499Z,17.3
2018-11-28T09:43:37.219Z,16.7
2018-11-28T09:44:37.951Z,17.8
2018-11-28T09:45:38.660Z,17.4
2018-11-28T09:46:39.394Z,17.0
2018-11-28T09:47:40.219Z,16.7
2018-11-28T09:48:40.928Z,17.5
2018-11-28T09:49:41.661Z,17.1
2018-11-28T09:50:42.377Z,17.4
2018-11-28T09:51:43.110Z,16.0
2018-11-28T09:52:43.819Z,17.1
2018-11-28T09:53:44.791Z,16.6
2018-11-28T09:54:45.508Z,16.9
2018-11-28T09:55:46.225Z,17.3
2018-11-28T09:56:46.931Z,16.3
2018-11-28T09:57:47.641Z,16.7
2018-11-28T09:58:48.357Z,16.5
2018-11-28T09:59:49.081Z,17.0
2018-11-28T10:00:49.859Z,17.4
2018-11-28T10:01:50.577Z,17.3
2018-11-28T10:02:51.292Z,17.3
2018-11-28T10:03:52.257Z,17.7
2018-11-28T10:04:53.256Z,17.0
2018-11-28T10:05:54.918Z,16.6
2018-11-28T10:06:55.631Z,17.5
2018-11-28T10:07:56.345Z,17.8
2018-11-28T10:08:57.521Z,16.2
2018-11-28T10:09:58.236Z,17.7
2018-11-28T10:10:58.953Z,17.3
2018-11-28T10:11:59.949Z,17.4
2018-11-28T10:13:00.671Z,17.7
2018-11-28T10:14:01.788Z,17.8
2018-11-28T10:15:02.503Z,17.3
2018-11-28T10:16:03.215Z,16.8
2018-11-28T10:17:04.949Z,17.3
2018-11-28T10:18:05.975Z,18.0
2018-11-28T10:19:06.838Z,18.0
2018-11-28T10:20:08.299Z,17.4
2018-11-28T10:21:09.841Z,17.1
2018-11-28T10:22:11.734Z,17.0
2018-11-28T10:23:12.749Z,17.8
2018-11-28T10:24:14.018Z,17.5
2018-11-28T10:25:14.731Z,17.0
2018-11-28T10:26:15.455Z,16.5
2018-11-28T10:27:16.174Z,17.9
2018-11-28T10:28:16.878Z,16.6
2018-11-28T10:29:17.603Z,17.5
2018-11-28T10:30:18.318Z,15.3
2018-11-28T10:31:19.046Z,16.6
2018-11-28T10:32:19.766Z,17.5
2018-11-28T10:33:20.479Z,17.3
2018-11-28T10:34:21.191Z,18.6
2018-11-28T10:35:21.931Z,16.5
2018-11-28T10:36:22.628Z,17.6
2018-11-28T10:37:23.345Z,17.8
2018-11-28T10:38:24.061Z,16.7
2018-11-28T10:39:24.774Z,17.4
2018-11-28T10:40:25.497Z,15.9
2018-11-28T10:41:26.275Z,17.2
2018-11-28T10:42:27.016Z,17.4
2018-11-28T10:43:27.828Z,17.7
2018-11-28T10:44:28.553Z,16.6
2018-11-28T10:45:29.268Z,17.2
2018-11-28T10:46:30.237Z,17.0
2018-11-28T10:47:30.952Z,16.8
2018-11-28T10:48:31.720Z,17.7
2018-11-28T10:49:32.425Z,16.4
2018-11-28T10:50:33.146Z,16.4
2018-11-28T10:51:33.860Z,16.4
2018-11-28T10:52:34.574Z,17.7
2018-11-28T10:53:35.286Z,16.7
2018-11-28T10:54:36.005Z,17.0
2018-11-28T10:55:36.726Z,17.1
2018-11-28T10:56:37.445Z,17.1
2018-11-28T10:57:38.155Z,17.6
2018-11-28T10:58:38.883Z,17.0
2018-11-28T10:59:39.607Z,16.2
2018-11-28T11:00:40.319Z,16.6
2018-11-28T11:01:41.048Z,17.2
2018-11-28T11:02:41.762Z,17.9
2018-11-28T11:03:42.724Z,17.5
2018-11-28T11:04:43.473Z,16.4
2018-11-28T11:05:44.243Z,16.9
2018-11-28T11:06:45.209Z,16.9
2018-11-28T11:07:45.953Z,15.6
2018-11-28T11:08:46.694Z,16.6
2018-11-28T11:09:47.404Z,16.6
2018-11-28T11:10:48.130Z,17.4
2018-11-28T11:11:48.847Z,16.7
2018-11-28T11:12:49.568Z,16.2
2018-11-28T11:13:50.289Z,15.9
2018-11-28T11:14:51.055Z,16.7
2018-11-28T11:15:51.775Z,17.2
2018-11-28T11:16:52.507Z,16.4
2018-11-28T11:17:53.226Z,16.6
2018-11-28T11:18:53.948Z,17.7
2018-11-28T11:19:54.669Z,16.7
2018-11-28T11:20:55.435Z,17.1
2018-11-28T11:21:56.159Z,16.0
2018-11-28T11:22:57.135Z,16.8
2018-11-28T11:23:57.858Z,17.0
2018-11-28T11:24:58.575Z,17.0
2018-11-28T11:25:59.298Z,16.8
2018-11-28T11:27:00.124Z,16.8
2018-11-28T11:28:00.842Z,17.3
2018-11-28T11:29:01.566Z,17.2
2018-11-28T11:30:02.278Z,16.9
2018-11-28T11:31:02.999Z,15.8
2018-11-28T11:32:03.705Z,17.9
2018-11-28T11:33:04.429Z,16.4
2018-11-28T11:34:05.154Z,17.3
2018-11-28T11:35:06.242Z,16.6
2018-11-28T11:36:06.937Z,16.9
2018-11-28T11:37:07.659Z,16.7
2018-11-28T11:38:08.403Z,17.1
2018-11-28T11:39:09.103Z,16.0
2018-11-28T11:40:09.827Z,18.3
2018-11-28T11:41:10.559Z,15.8
2018-11-28T11:42:11.281Z,17.9
2018-11-28T11:43:11.998Z,17.4
2018-11-28T11:44:12.711Z,17.5
2018-11-28T11:45:13.436Z,16.4
2018-11-28T11:46:14.152Z,17.3
2018-11-28T11:47:14.876Z,15.6
2018-11-28T11:48:16.041Z,16.5
2018-11-28T11:49:16.848Z,16.8
2018-11-28T11:50:17.579Z,16.6
2018-11-28T11:51:18.305Z,16.7
2018-11-28T11:52:19.027Z,15.7
2018-11-28T11:53:19.790Z,16.2
2018-11-28T11:54:20.514Z,16.1
2018-11-28T11:55:21.231Z,17.4
2018-11-28T11:56:21.952Z,16.3
2018-11-28T11:57:22.664Z,15.8
2018-11-28T11:58:23.431Z,16.6
2018-11-28T11:59:24.146Z,16.9
2018-11-28T12:00:24.861Z,17.3
2018-11-28T12:01:25.588Z,16.5
2018-11-28T12:02:26.304Z,16.5
2018-11-28T12:03:27.021Z,16.2
2018-11-28T12:04:27.764Z,16.5
2018-11-28T12:05:28.485Z,15.9
2018-11-28T12:06:29.198Z,16.1
2018-11-28T12:07:29.926Z,16.3
2018-11-28T12:08:30.648Z,16.2
2018-11-28T12:09:31.368Z,17.8
2018-11-28T12:10:32.178Z,17.0
2018-11-28T12:11:32.889Z,16.9
2018-11-28T12:12:33.610Z,15.6
2018-11-28T12:13:34.330Z,16.0
2018-11-28T12:14:35.049Z,15.5
2018-11-28T12:15:35.883Z,16.0
2018-11-28T12:16:36.547Z,17.3
2018-11-28T12:17:37.262Z,16.1
2018-11-28T12:18:37.990Z,15.6
2018-11-28T12:19:38.722Z,16.0
2018-11-28T12:20:39.633Z,16.6
2018-11-28T12:21:40.355Z,16.2
2018-11-28T12:22:41.341Z,16.1
2018-11-28T12:23:42.045Z,16.2
2018-11-28T12:24:43.024Z,16.2
2018-11-28T12:25:43.739Z,16.5
2018-11-28T12:26:44.470Z,16.6
2018-11-28T12:27:45.442Z,15.7
2018-11-28T12:28:46.149Z,16.0
2018-11-28T12:29:46.884Z,16.7
2018-11-28T12:30:47.606Z,16.0
2018-11-28T12:31:48.346Z,16.3
2018-11-28T12:32:49.075Z,16.6
2018-11-28T12:33:49.787Z,16.7
2018-11-28T12:34:50.573Z,16.3
2018-11-28T12:35:51.224Z,15.6
2018-11-28T12:36:51.946Z,16.3
2018-11-28T12:37:52.660Z,16.3
2018-11-28T12:38:53.370Z,16.6
2018-11-28T12:39:54.101Z,15.9
2018-11-28T12:40:54.819Z,15.4
2018-11-28T12:41:55.580Z,16.2
2018-11-28T12:42:56.296Z,15.7
2018-11-28T12:43:57.021Z,16.4
2018-11-28T12:44:57.734Z,16.7
2018-11-28T12:45:58.468Z,16.4
2018-11-28T12:46:59.171Z,16.1
2018-11-28T12:48:00.139Z,16.1
2018-11-28T12:49:01.010Z,15.9
2018-11-28T12:50:01.720Z,14.9
2018-11-28T12:51:02.437Z,14.8
2018-11-28T12:52:03.158Z,16.5
2018-11-28T12:53:03.870Z,14.7
2018-11-28T12:54:04.590Z,15.3
2018-11-28T12:55:05.299Z,16.0
2018-11-28T12:56:06.020Z,15.3
2018-11-28T12:57:06.747Z,15.5
2018-11-28T12:58:07.472Z,15.7
2018-11-28T12:59:08.189Z,16.3
2018-11-28T13:00:08.914Z,16.2
2018-11-28T13:01:09.637Z,15.3
2018-11-28T13:02:10.371Z,15.3
2018-11-28T13:03:11.333Z,15.6
2018-11-28T13:04:12.057Z,15.4
2018-11-28T13:05:12.819Z,15.5
2018-11-28T13:06:13.548Z,14.9
2018-11-28T13:07:14.264Z,15.2
2018-11-28T13:08:14.990Z,15.6
2018-11-28T13:09:15.712Z,15.8
2018-11-28T13:10:16.438Z,16.4
2018-11-28T13:11:17.177Z,15.9
2018-11-28T13:12:17.886Z,15.2
2018-11-28T13:13:18.613Z,16.4
2018-11-28T13:14:19.334Z,15.1
2018-11-28T13:15:20.897Z,16.0
2018-11-28T13:16:21.878Z,15.8
2018-11-28T13:17:22.846Z,16.1
2018-11-28T13:18:24.083Z,16.1
2018-11-28T13:19:24.793Z,16.4
2018-11-28T13:20:25.522Z,16.1
2018-11-28T13:21:26.288Z,15.9
2018-11-28T13:22:27.014Z,16.8
2018-11-28T13:23:27.730Z,16.6
2018-11-28T13:24:28.447Z,17.2
2018-11-28T13:25:29.156Z,16.1
2018-11-28T13:26:29.934Z,16.7
2018-11-28T13:27:30.649Z,16.3
2018-11-28T13:28:31.353Z,16.0